createdAt,value
2022-08-19T00:02:11.560Z,19.88
2022-08-19T00:04:41.187Z,20.15
2022-08-19T00:07:11.322Z,19.95
2022-08-19T00:09:38.677Z,19.52
2022-08-19T00:12:06.742Z,18.90
2022-08-19T00:14:33.576Z,18.45
2022-08-19T00:17:02.006Z,19.48
2022-08-19T00:19:29.497Z,19.55
2022-08-19T00:21:57.504Z,18.98
2022-08-19T00:24:24.522Z,19.27
2022-08-19T00:26:56.110Z,20.48
2022-08-19T00:29:24.911Z,19.02
2022-08-19T00:31:57.367Z,19.08
2022-08-19T00:34:24.765Z,19.30
2022-08-19T00:36:51.845Z,19.40
2022-08-19T00:39:19.331Z,19.73
2022-08-19T00:41:49.759Z,18.98
2022-08-19T00:44:22.716Z,19.58
2022-08-19T00:46:58.554Z,17.88
2022-08-19T00:49:33.248Z,18.40
2022-08-19T00:52:13.091Z,18.58
2022-08-19T00:54:43.977Z,18.55
2022-08-19T00:57:16.127Z,18.92
2022-08-19T00:59:56.411Z,18.30
2022-08-19T01:02:31.134Z,19.23
2022-08-19T01:04:58.380Z,19.20
2022-08-19T01:07:25.728Z,19.40
2022-08-19T01:09:53.222Z,19.45
2022-08-19T01:12:20.356Z,18.63
2022-08-19T01:14:48.871Z,19.20
2022-08-19T01:17:17.164Z,18.30
2022-08-19T01:19:47.857Z,21.25
2022-08-19T01:22:35.987Z,19.02
2022-08-19T01:25:03.491Z,19.10
2022-08-19T01:27:43.720Z,20.38
2022-08-19T01:30:16.602Z,19.00
2022-08-19T01:32:44.803Z,18.98
2022-08-19T01:35:19.791Z,18.95
2022-08-19T01:37:57.317Z,19.05
2022-08-19T01:40:28.226Z,18.80
2022-08-19T01:42:55.543Z,17.98
2022-08-19T01:45:25.598Z,17.90
2022-08-19T01:48:01.952Z,18.63
2022-08-19T01:50:31.970Z,18.20
2022-08-19T01:53:02.390Z,18.60
2022-08-19T01:55:36.167Z,18.75
2022-08-19T01:58:15.620Z,19.02
2022-08-19T02:00:43.018Z,19.05
2022-08-19T02:03:13.122Z,20.27
2022-08-19T02:05:43.914Z,18.08
2022-08-19T02:08:15.129Z,19.27
2022-08-19T02:10:47.736Z,20.58
2022-08-19T02:13:14.869Z,20.13
2022-08-19T02:15:42.092Z,19.40
2022-08-19T02:18:11.607Z,19.88
2022-08-19T02:20:40.047Z,20.77
2022-08-19T02:23:13.365Z,21.13
2022-08-19T02:25:42.993Z,21.65
2022-08-19T02:28:14.505Z,21.77
2022-08-19T02:30:43.928Z,21.80
2022-08-19T02:33:11.783Z,22.45
2022-08-19T02:35:43.765Z,23.17
2022-08-19T02:38:28.982Z,22.70
2022-08-19T02:41:01.640Z,23.95
2022-08-19T02:43:33.833Z,25.42
2022-08-19T02:46:03.130Z,25.38
2022-08-19T02:48:29.976Z,24.35
2022-08-19T02:50:56.743Z,25.95
2022-08-19T02:53:25.915Z,24.73
2022-08-19T02:55:52.750Z,24.92
2022-08-19T02:58:20.438Z,26.05
2022-08-19T03:00:50.449Z,25.60
2022-08-19T03:03:18.244Z,26.25
2022-08-19T03:05:49.232Z,26.15
2022-08-19T03:08:23.035Z,26.00
2022-08-19T03:10:49.895Z,26.67
2022-08-19T03:13:19.086Z,26.55
2022-08-19T03:15:48.342Z,26.98
2022-08-19T03:18:16.080Z,26.52
2022-08-19T03:20:56.899Z,25.55
2022-08-19T03:23:24.845Z,25.88
2022-08-19T03:25:58.451Z,26.35
2022-08-19T03:28:42.346Z,25.98
2022-08-19T03:31:41.658Z,26.58
2022-08-19T03:34:05.509Z,28.48
2022-08-19T03:36:34.910Z,26.85
2022-08-19T03:39:02.266Z,28.50
2022-08-19T03:41:34.377Z,29.67
2022-08-19T03:44:17.646Z,31.25
2022-08-19T03:46:48.102Z,28.67
2022-08-19T03:49:15.179Z,29.75
2022-08-19T03:51:43.494Z,31.00
2022-08-19T03:54:13.823Z,29.80
2022-08-19T03:56:43.753Z,31.75
2022-08-19T03:59:14.399Z,31.52
2022-08-19T04:01:42.238Z,33.28
2022-08-19T04:04:10.016Z,33.67
2022-08-19T04:06:39.630Z,35.83
2022-08-19T04:09:10.414Z,33.97
2022-08-19T04:11:46.799Z,36.05
2022-08-19T04:14:17.219Z,35.17
2022-08-19T04:16:45.540Z,35.20
2022-08-19T04:19:17.549Z,36.13
2022-08-19T04:21:47.600Z,35.88
2022-08-19T04:24:15.230Z,35.40
2022-08-19T04:26:42.510Z,34.95
2022-08-19T04:29:16.025Z,35.33
2022-08-19T04:31:45.298Z,35.50
2022-08-19T04:34:16.086Z,33.78
2022-08-19T04:36:45.475Z,33.05
2022-08-19T04:39:16.620Z,34.90
2022-08-19T04:42:03.637Z,34.65
2022-08-19T04:44:35.830Z,33.22
2022-08-19T04:47:11.016Z,34.42
2022-08-19T04:49:41.371Z,34.13
2022-08-19T04:52:09.371Z,33.35
2022-08-19T04:54:38.806Z,34.00
2022-08-19T04:57:11.255Z,35.13
2022-08-19T04:59:39.724Z,33.10
2022-08-19T05:02:08.801Z,32.53
2022-08-19T05:04:36.777Z,33.67
2022-08-19T05:07:03.497Z,33.75
2022-08-19T05:09:52.578Z,32.88
2022-08-19T05:12:21.177Z,34.55
2022-08-19T05:14:48.962Z,34.50
2022-08-19T05:17:37.491Z,33.20
2022-08-19T05:20:25.042Z,32.47
2022-08-19T05:22:51.824Z,32.30
2022-08-19T05:25:20.995Z,30.85
2022-08-19T05:27:50.934Z,29.60
2022-08-19T05:30:18.818Z,30.58
2022-08-19T05:33:01.025Z,28.73
2022-08-19T05:35:29.127Z,29.60
2022-08-19T05:38:04.125Z,28.85
2022-08-19T05:40:30.970Z,29.08
2022-08-19T05:42:57.547Z,27.80
2022-08-19T05:45:24.214Z,29.80
2022-08-19T05:47:50.868Z,27.67
2022-08-19T05:50:18.514Z,27.00
2022-08-19T05:52:54.280Z,27.52
2022-08-19T05:55:21.328Z,26.60
2022-08-19T05:57:49.389Z,25.45
2022-08-19T06:00:18.664Z,25.25
2022-08-19T06:02:48.403Z,25.98
2022-08-19T06:05:15.630Z,26.15
2022-08-19T06:07:42.274Z,25.65
2022-08-19T06:10:11.760Z,26.10
2022-08-19T06:12:39.593Z,25.70
2022-08-19T06:15:15.325Z,26.02
2022-08-19T06:17:45.304Z,27.30
2022-08-19T06:20:15.942Z,26.40
2022-08-19T06:22:44.991Z,25.85
2022-08-19T06:25:12.653Z,25.63
2022-08-19T06:27:58.616Z,27.48
2022-08-19T06:30:27.656Z,25.02
2022-08-19T06:32:54.591Z,26.92
2022-08-19T06:35:21.483Z,27.77
2022-08-19T06:37:48.333Z,26.88
2022-08-19T06:40:17.850Z,26.77
2022-08-19T06:42:54.173Z,26.73
2022-08-19T06:45:34.960Z,27.05
2022-08-19T06:48:03.380Z,24.00
2022-08-19T06:50:32.790Z,24.70
2022-08-19T06:52:59.793Z,23.90
2022-08-19T06:55:35.061Z,24.77
2022-08-19T06:58:05.381Z,24.70
2022-08-19T07:00:34.822Z,24.20
2022-08-19T07:03:04.567Z,24.05
2022-08-19T07:05:45.415Z,25.48
2022-08-19T07:08:12.623Z,24.13
2022-08-19T07:10:44.854Z,25.27
2022-08-19T07:13:12.495Z,24.73
2022-08-19T07:15:39.797Z,26.15
2022-08-19T07:18:06.854Z,26.80
2022-08-19T07:20:33.786Z,26.05
2022-08-19T07:23:01.444Z,25.83
2022-08-19T07:25:34.084Z,26.07
2022-08-19T07:28:01.534Z,25.73
2022-08-19T07:30:28.630Z,25.88
2022-08-19T07:32:57.471Z,24.30
2022-08-19T07:35:24.748Z,26.27
2022-08-19T07:37:51.350Z,24.77
2022-08-19T07:40:18.106Z,26.00
2022-08-19T07:42:45.070Z,27.48
2022-08-19T07:45:12.794Z,26.85
2022-08-19T07:47:49.047Z,26.55
2022-08-19T07:50:20.781Z,27.67
2022-08-19T07:52:50.808Z,26.10
2022-08-19T07:55:40.625Z,28.15
2022-08-19T07:58:15.624Z,25.30
2022-08-19T08:00:44.349Z,27.52
2022-08-19T08:03:12.201Z,27.75
2022-08-19T08:06:00.706Z,27.13
2022-08-19T08:08:48.172Z,27.67
2022-08-19T08:11:20.713Z,26.10
2022-08-19T08:14:00.869Z,27.08
2022-08-19T08:16:34.655Z,27.30
2022-08-19T08:19:01.782Z,27.92
2022-08-19T08:21:28.961Z,28.23
2022-08-19T08:23:56.765Z,26.42
2022-08-19T08:26:25.952Z,25.50
2022-08-19T08:28:53.822Z,25.40
2022-08-19T08:31:21.641Z,26.77
2022-08-19T08:33:51.161Z,25.80
2022-08-19T08:36:18.380Z,26.02
2022-08-19T08:38:49.506Z,26.95
2022-08-19T08:41:35.889Z,28.73
2022-08-19T08:44:07.009Z,29.30
2022-08-19T08:46:41.056Z,28.73
2022-08-19T08:49:26.569Z,29.10
2022-08-19T08:52:05.277Z,28.83
2022-08-19T08:54:40.346Z,29.60
2022-08-19T08:57:40.682Z,30.50
2022-08-19T09:00:15.620Z,32.47
2022-08-19T09:02:45.223Z,34.92
2022-08-19T09:05:25.792Z,31.88
2022-08-19T09:08:06.876Z,32.30
2022-08-19T09:10:44.430Z,30.85
2022-08-19T09:13:53.219Z,32.08
2022-08-19T09:16:27.887Z,30.58
2022-08-19T09:18:59.875Z,30.38
2022-08-19T09:21:33.037Z,32.00
2022-08-19T09:24:03.418Z,30.75
2022-08-19T09:26:47.459Z,30.15
2022-08-19T09:29:22.594Z,29.60
2022-08-19T09:31:52.336Z,31.13
2022-08-19T09:34:22.149Z,30.27
2022-08-19T09:36:55.402Z,29.55
2022-08-19T09:39:22.613Z,28.75
2022-08-19T09:41:50.752Z,28.77
2022-08-19T09:44:18.212Z,29.00
2022-08-19T09:46:47.968Z,28.77
2022-08-19T09:49:18.368Z,28.67
2022-08-19T09:51:50.827Z,29.00
2022-08-19T09:54:23.408Z,27.70
2022-08-19T09:56:51.449Z,26.03
2022-08-19T09:59:18.202Z,24.98
2022-08-19T10:01:45.250Z,24.77
2022-08-19T10:04:19.655Z,22.58
2022-08-19T10:06:53.478Z,20.67
2022-08-19T10:12:02.572Z,22.77
2022-08-19T10:14:29.861Z,24.05
2022-08-19T10:16:57.519Z,23.40
2022-08-19T10:19:33.427Z,23.08
2022-08-19T10:22:04.616Z,24.52
2022-08-19T10:24:31.915Z,24.45
2022-08-19T10:27:00.042Z,22.02
2022-08-19T10:29:32.693Z,21.60
2022-08-19T10:32:09.714Z,19.83
2022-08-19T10:34:48.354Z,18.58
2022-08-19T10:37:23.525Z,17.27
2022-08-19T10:39:52.083Z,15.88
2022-08-19T10:42:19.751Z,18.25
2022-08-19T10:44:47.759Z,21.05
2022-08-19T10:47:25.434Z,22.92
2022-08-19T10:50:15.855Z,22.15
2022-08-19T10:52:49.182Z,22.25
2022-08-19T10:55:42.916Z,22.40
2022-08-19T10:58:15.357Z,23.27
2022-08-19T11:00:46.688Z,22.00
2022-08-19T11:03:13.759Z,21.08
2022-08-19T11:05:43.670Z,23.55
2022-08-19T11:08:22.789Z,22.23
2022-08-19T11:11:00.327Z,24.92
2022-08-19T11:13:29.557Z,23.13
2022-08-19T11:16:08.208Z,23.40
2022-08-19T11:18:41.560Z,24.80
2022-08-19T11:21:24.793Z,25.67
2022-08-19T11:26:24.170Z,24.73
2022-08-19T11:28:54.273Z,24.17
2022-08-19T11:31:24.818Z,24.52
2022-08-19T11:33:58.401Z,23.25
2022-08-19T11:36:25.213Z,21.73
2022-08-19T11:38:52.317Z,20.88
2022-08-19T11:41:24.503Z,21.88
2022-08-19T11:43:55.115Z,22.00
2022-08-19T11:46:24.866Z,21.70
2022-08-19T11:48:52.131Z,22.33
2022-08-19T11:51:25.702Z,23.60
2022-08-19T11:53:53.954Z,23.92
2022-08-19T11:56:22.404Z,23.95
2022-08-19T11:58:53.541Z,24.33
2022-08-19T12:01:23.485Z,26.20
2022-08-19T12:03:55.778Z,25.45
2022-08-19T12:06:31.030Z,25.05
2022-08-19T12:08:59.572Z,27.52
2022-08-19T12:11:28.737Z,26.77
2022-08-19T12:13:58.077Z,28.10
2022-08-19T12:16:29.025Z,25.08
2022-08-19T12:19:04.612Z,26.45
2022-08-19T12:21:34.167Z,25.65
2022-08-19T12:24:05.068Z,23.70
2022-08-19T12:26:32.503Z,22.92
2022-08-19T12:29:00.734Z,21.30
2022-08-19T12:31:29.843Z,18.75
2022-08-19T12:33:57.286Z,17.77
2022-08-19T12:36:26.037Z,17.35
2022-08-19T12:38:56.010Z,16.67
2022-08-19T12:41:26.123Z,17.52
2022-08-19T12:43:53.433Z,17.70
2022-08-19T12:46:22.253Z,17.88
2022-08-19T12:48:55.323Z,16.08
2022-08-19T12:51:22.985Z,16.20
2022-08-19T12:53:50.819Z,16.63
2022-08-19T12:56:22.304Z,16.05
2022-08-19T12:58:52.877Z,16.30
2022-08-19T13:01:23.035Z,15.13
2022-08-19T13:04:01.342Z,14.65
2022-08-19T13:06:32.053Z,15.13
2022-08-19T13:08:59.782Z,15.45
2022-08-19T13:11:26.870Z,14.52
2022-08-19T13:13:55.949Z,15.13
2022-08-19T13:16:23.023Z,13.35
2022-08-19T13:18:52.808Z,14.30
2022-08-19T13:21:22.623Z,12.80
2022-08-19T13:23:50.453Z,13.95
2022-08-19T13:26:18.658Z,11.85
2022-08-19T13:29:04.483Z,12.23
2022-08-19T13:31:52.709Z,13.80
2022-08-19T13:34:26.605Z,14.50
2022-08-19T13:36:58.302Z,13.52
2022-08-19T13:39:25.067Z,8.40
2022-08-19T13:41:52.520Z,7.25
2022-08-19T13:44:19.854Z,7.97
2022-08-19T13:46:53.903Z,7.30
2022-08-19T13:49:21.426Z,8.02
2022-08-19T13:51:48.292Z,9.02
2022-08-19T13:54:15.216Z,10.35
2022-08-19T13:56:46.926Z,12.10
2022-08-19T13:59:14.499Z,12.10
2022-08-19T14:01:42.393Z,13.80
2022-08-19T14:04:09.829Z,14.73
2022-08-19T14:06:36.850Z,16.35
2022-08-19T14:09:03.848Z,16.30
2022-08-19T14:11:30.901Z,17.13
2022-08-19T14:13:57.558Z,17.08
2022-08-19T14:16:24.284Z,15.15
2022-08-19T14:18:51.031Z,15.73
2022-08-19T14:21:21.998Z,16.55
2022-08-19T14:23:49.005Z,17.42
2022-08-19T14:26:18.426Z,15.60
2022-08-19T14:28:46.501Z,16.02
2022-08-19T14:31:17.557Z,16.48
2022-08-19T14:33:44.307Z,15.00
2022-08-19T14:36:11.173Z,16.02
2022-08-19T14:38:38.021Z,16.30
2022-08-19T14:41:10.586Z,15.00
2022-08-19T14:46:06.139Z,14.82
2022-08-19T14:48:42.596Z,15.77
2022-08-19T14:51:10.727Z,14.98
2022-08-19T14:53:38.017Z,15.90
2022-08-19T14:56:20.382Z,13.50
2022-08-19T14:58:47.647Z,12.63
2022-08-19T15:01:15.050Z,12.98
2022-08-19T15:03:44.267Z,13.63
2022-08-19T15:06:12.692Z,10.40
2022-08-19T15:08:42.033Z,10.82
2022-08-19T15:11:10.896Z,11.15
2022-08-19T15:13:38.897Z,10.25
2022-08-19T15:16:06.153Z,9.88
2022-08-19T15:18:46.633Z,9.40
2022-08-19T15:21:26.794Z,9.10
2022-08-19T15:23:56.575Z,7.25
2022-08-19T15:26:23.836Z,7.18
2022-08-19T15:28:51.126Z,8.43
2022-08-19T15:31:28.328Z,9.48
2022-08-19T15:33:59.055Z,8.48
2022-08-19T15:36:27.151Z,8.13
2022-08-19T15:38:54.137Z,8.00
2022-08-19T15:41:28.995Z,6.82
2022-08-19T15:43:59.523Z,6.28
2022-08-19T15:46:29.229Z,6.70
2022-08-19T15:48:57.553Z,7.00
2022-08-19T15:51:30.368Z,6.82
2022-08-19T15:53:58.383Z,7.50
2022-08-19T15:56:27.471Z,7.65
2022-08-19T15:59:13.215Z,7.97
2022-08-19T16:01:58.629Z,8.40
2022-08-19T16:04:44.141Z,8.45
2022-08-19T16:07:12.701Z,9.05
2022-08-19T16:09:39.535Z,10.32
2022-08-19T16:12:06.827Z,10.70
2022-08-19T16:14:35.723Z,10.13
2022-08-19T16:17:03.209Z,11.55
2022-08-19T16:19:31.030Z,10.75
2022-08-19T16:21:57.864Z,8.93
2022-08-19T16:24:27.473Z,9.88
2022-08-19T16:26:55.562Z,12.35
2022-08-19T16:29:34.887Z,8.50
2022-08-19T16:32:10.309Z,7.72
2022-08-19T16:34:38.940Z,6.55
2022-08-19T16:37:05.720Z,5.90
2022-08-19T16:39:32.780Z,6.25
2022-08-19T16:41:59.747Z,6.60
2022-08-19T16:44:27.455Z,7.03
2022-08-19T16:46:58.730Z,8.25
2022-08-19T16:49:53.158Z,7.30
2022-08-19T16:52:16.492Z,6.82
2022-08-19T16:54:43.597Z,7.07
2022-08-19T16:57:12.027Z,8.80
2022-08-19T16:59:43.683Z,8.20
2022-08-19T17:02:22.490Z,8.32
2022-08-19T17:07:27.812Z,8.75
2022-08-19T17:09:55.452Z,7.85
2022-08-19T17:12:31.549Z,8.73
2022-08-19T17:15:00.763Z,8.05
2022-08-19T17:17:29.410Z,9.45
2022-08-19T17:20:00.666Z,8.35
2022-08-19T17:22:28.962Z,12.15
2022-08-19T17:24:58.243Z,9.05
2022-08-19T17:27:26.968Z,8.23
2022-08-19T17:29:59.973Z,7.88
2022-08-19T17:32:27.287Z,8.48
2022-08-19T17:34:54.376Z,6.97
2022-08-19T17:37:21.369Z,7.40
2022-08-19T17:39:48.340Z,8.07
2022-08-19T17:42:16.595Z,8.10
2022-08-19T17:44:50.451Z,8.32
2022-08-19T17:47:19.594Z,8.60
2022-08-19T17:49:46.672Z,7.78
2022-08-19T17:52:13.568Z,7.20
2022-08-19T17:54:46.702Z,6.85
2022-08-19T17:57:14.145Z,7.18
2022-08-19T17:59:40.891Z,6.57
2022-08-19T18:02:10.363Z,6.53
2022-08-19T18:04:38.479Z,6.90
2022-08-19T18:07:06.326Z,6.32
2022-08-19T18:09:42.276Z,6.10
2022-08-19T18:12:15.632Z,7.38
2022-08-19T18:14:43.004Z,6.75
2022-08-19T18:17:13.454Z,6.80
2022-08-19T18:19:43.741Z,5.90
2022-08-19T18:22:23.543Z,5.78
2022-08-19T18:24:51.006Z,6.72
2022-08-19T18:27:17.950Z,6.03
2022-08-19T18:29:45.554Z,5.10
2022-08-19T18:32:12.940Z,6.03
2022-08-19T18:34:42.454Z,4.63
2022-08-19T18:37:10.108Z,4.55
2022-08-19T18:39:55.848Z,5.32
2022-08-19T18:42:41.669Z,5.93
2022-08-19T18:45:28.603Z,5.85
2022-08-19T18:48:26.438Z,5.45
2022-08-19T18:50:59.553Z,5.82
2022-08-19T18:53:28.947Z,5.60
2022-08-19T18:55:56.356Z,5.43
2022-08-19T18:58:33.843Z,6.20
2022-08-19T19:01:14.101Z,5.78
2022-08-19T19:03:53.436Z,5.90
2022-08-19T19:06:25.981Z,6.70
2022-08-19T19:08:54.932Z,6.80
2022-08-19T19:11:26.059Z,6.53
2022-08-19T19:13:55.291Z,5.97
2022-08-19T19:16:24.659Z,7.28
2022-08-19T19:18:52.825Z,6.90
2022-08-19T19:21:22.956Z,7.55
2022-08-19T19:23:50.810Z,7.07
2022-08-19T19:26:17.726Z,7.47
2022-08-19T19:28:45.875Z,6.70
2022-08-19T19:31:25.418Z,7.38
2022-08-19T19:33:54.223Z,7.40
2022-08-19T19:36:21.067Z,7.35
2022-08-19T19:38:49.030Z,7.68
2022-08-19T19:41:23.391Z,8.98
2022-08-19T19:44:10.107Z,9.23
2022-08-19T19:46:39.968Z,9.25
2022-08-19T19:49:06.752Z,8.93
2022-08-19T19:51:37.612Z,8.88
2022-08-19T19:54:05.750Z,9.95
2022-08-19T19:56:32.716Z,9.85
2022-08-19T19:58:59.687Z,10.50
2022-08-19T20:01:27.180Z,8.95
2022-08-19T20:03:54.675Z,10.82
2022-08-19T20:06:21.379Z,11.20
2022-08-19T20:09:07.225Z,9.98
2022-08-19T20:11:41.709Z,8.40
2022-08-19T20:14:44.100Z,8.95
2022-08-19T20:17:11.530Z,8.60
2022-08-19T20:19:38.132Z,8.48
2022-08-19T20:22:06.581Z,6.82
2022-08-19T20:24:36.328Z,6.78
2022-08-19T20:27:04.833Z,6.57
2022-08-19T20:29:37.875Z,6.90
2022-08-19T20:32:06.909Z,5.97
2022-08-19T20:34:33.869Z,4.97
2022-08-19T20:37:00.614Z,5.20
2022-08-19T20:39:27.305Z,6.18
2022-08-19T20:41:56.255Z,6.10
2022-08-19T20:44:25.402Z,5.78
2022-08-19T20:46:55.261Z,5.85
2022-08-19T20:49:27.453Z,6.57
2022-08-19T20:51:55.934Z,5.63
2022-08-19T20:54:25.402Z,5.95
2022-08-19T20:56:52.913Z,5.57
2022-08-19T20:59:20.802Z,5.20
2022-08-19T21:01:48.500Z,5.20
2022-08-19T21:04:15.488Z,5.10
2022-08-19T21:06:45.314Z,4.88
2022-08-19T21:09:12.435Z,5.13
2022-08-19T21:11:39.272Z,5.03
2022-08-19T21:14:06.145Z,5.30
2022-08-19T21:16:33.873Z,5.35
2022-08-19T21:19:02.888Z,4.78
2022-08-19T21:21:29.671Z,5.40
2022-08-19T21:23:57.211Z,5.18
2022-08-19T21:26:24.388Z,4.50
2022-08-19T21:28:51.111Z,4.45
2022-08-19T21:31:18.034Z,4.50
2022-08-19T21:33:45.201Z,4.47
2022-08-19T21:36:12.040Z,5.13
2022-08-19T21:38:38.765Z,5.40
2022-08-19T21:41:06.562Z,4.93
2022-08-19T21:43:37.491Z,5.70
2022-08-19T21:46:04.747Z,5.45
2022-08-19T21:48:31.538Z,6.10
2022-08-19T21:51:01.261Z,6.50
2022-08-19T21:53:31.748Z,6.78
2022-08-19T21:58:30.640Z,6.80
2022-08-19T22:01:01.756Z,7.25
2022-08-19T22:03:29.118Z,8.23
2022-08-19T22:05:55.948Z,9.30
2022-08-19T22:08:22.667Z,8.88
2022-08-19T22:10:49.866Z,9.18
2022-08-19T22:13:18.265Z,9.45
2022-08-19T22:15:51.975Z,9.15
2022-08-19T22:18:19.020Z,9.85
2022-08-19T22:20:45.885Z,10.25
2022-08-19T22:23:23.412Z,10.52
2022-08-19T22:26:01.312Z,10.70
2022-08-19T22:28:30.750Z,10.80
2022-08-19T22:30:59.639Z,10.68
2022-08-19T22:33:29.887Z,10.32
2022-08-19T22:35:59.621Z,11.00
2022-08-19T22:38:26.692Z,9.85
2022-08-19T22:40:56.462Z,9.73
2022-08-19T22:43:31.963Z,10.20
2022-08-19T22:46:02.348Z,10.88
2022-08-19T22:48:32.764Z,10.65
2022-08-19T22:51:26.645Z,10.57
2022-08-19T22:53:56.483Z,8.82
2022-08-19T22:56:23.405Z,8.98
2022-08-19T22:58:50.792Z,8.90
2022-08-19T23:01:27.579Z,8.25
2022-08-19T23:04:00.450Z,7.00
2022-08-19T23:06:33.988Z,7.30
2022-08-19T23:09:07.653Z,7.30
2022-08-19T23:11:42.147Z,7.38
2022-08-19T23:14:11.095Z,7.07
2022-08-19T23:16:38.172Z,6.68
2022-08-19T23:19:07.251Z,5.95
2022-08-19T23:21:36.222Z,6.60
2022-08-19T23:24:03.427Z,6.25
2022-08-19T23:26:35.872Z,6.72
2022-08-19T23:29:22.828Z,6.15
2022-08-19T23:31:49.859Z,6.45
2022-08-19T23:34:16.645Z,6.50
2022-08-19T23:36:46.591Z,6.22
2022-08-19T23:39:13.487Z,6.10
2022-08-19T23:41:52.092Z,6.40
2022-08-19T23:44:18.885Z,6.25
2022-08-19T23:46:55.760Z,6.82
2022-08-19T23:49:26.239Z,6.82
2022-08-19T23:51:56.377Z,6.78
2022-08-19T23:54:27.448Z,6.88
2022-08-19T23:57:13.298Z,6.47
2022-08-19T23:59:42.471Z,6.63
